createdAt,value
2022-12-03T00:03:26.120Z,59.10
2022-12-03T00:08:27.912Z,56.07
2022-12-03T00:13:29.604Z,52.75
2022-12-03T00:18:31.261Z,53.30
2022-12-03T00:23:37.104Z,51.17
2022-12-03T00:28:41.913Z,50.60
2022-12-03T00:33:43.579Z,53.97
2022-12-03T00:38:45.821Z,57.45
2022-12-03T00:43:47.863Z,47.55
2022-12-03T00:48:49.561Z,48.80
2022-12-03T00:53:51.253Z,52.40
2022-12-03T00:58:52.995Z,48.63
2022-12-03T01:03:54.663Z,52.40
2022-12-03T01:08:56.355Z,50.53
2022-12-03T01:13:58.044Z,50.30
2022-12-03T01:18:59.783Z,52.25
2022-12-03T01:24:01.492Z,48.53
2022-12-03T01:29:03.952Z,49.30
2022-12-03T01:34:06.170Z,46.03
2022-12-03T01:39:07.976Z,54.80
2022-12-03T01:44:23.278Z,48.97
2022-12-03T01:49:34.105Z,51.45
2022-12-03T01:54:43.146Z,55.53
2022-12-03T01:59:45.123Z,40.00
2022-12-03T02:04:47.071Z,53.78
2022-12-03T02:09:48.792Z,52.33
2022-12-03T02:14:51.373Z,49.47
2022-12-03T02:19:54.956Z,56.97
2022-12-03T02:24:59.657Z,52.78
2022-12-03T02:30:01.322Z,55.00
2022-12-03T02:35:03.057Z,47.97
2022-12-03T02:40:10.458Z,49.90
2022-12-03T02:45:28.432Z,53.03
2022-12-03T02:50:36.259Z,54.38
2022-12-03T02:55:38.339Z,55.72
2022-12-03T03:00:40.337Z,54.60
2022-12-03T03:05:42.630Z,53.05
2022-12-03T03:10:44.803Z,50.40
2022-12-03T03:15:48.187Z,56.03
2022-12-03T03:20:50.023Z,52.67
2022-12-03T03:26:08.571Z,52.40
2022-12-03T03:31:12.710Z,55.83
2022-12-03T03:36:15.491Z,53.10
2022-12-03T03:41:18.741Z,53.05
2022-12-03T03:46:21.949Z,48.70
2022-12-03T03:51:23.817Z,52.85
2022-12-03T03:56:25.766Z,47.60
2022-12-03T04:01:27.880Z,52.40
2022-12-03T04:06:29.608Z,56.20
2022-12-03T04:11:49.650Z,46.35
2022-12-03T04:16:51.409Z,49.38
2022-12-03T04:22:11.504Z,45.30
2022-12-03T04:27:31.827Z,47.97
2022-12-03T04:32:52.202Z,47.72
2022-12-03T04:37:53.923Z,43.50
2022-12-03T04:42:55.603Z,49.90
2022-12-03T04:47:57.356Z,49.75
2022-12-03T04:52:59.038Z,44.78
2022-12-03T04:58:00.870Z,50.37
2022-12-03T05:03:02.690Z,48.63
2022-12-03T05:08:04.640Z,46.27
2022-12-03T05:13:06.319Z,43.20
2022-12-03T05:18:08.081Z,46.83
2022-12-03T05:23:11.229Z,44.20
2022-12-03T05:28:12.914Z,45.93
2022-12-03T05:33:14.684Z,45.80
2022-12-03T05:38:16.532Z,44.63
2022-12-03T05:43:18.247Z,42.27
2022-12-03T05:48:20.044Z,48.47
2022-12-03T05:53:21.716Z,38.08
2022-12-03T05:58:23.541Z,43.78
2022-12-03T06:03:25.383Z,45.15
2022-12-03T06:08:27.151Z,41.72
2022-12-03T06:13:28.847Z,41.38
2022-12-03T06:18:30.542Z,43.47
2022-12-03T06:23:32.287Z,42.27
2022-12-03T06:28:33.966Z,44.90
2022-12-03T06:33:35.699Z,42.30
2022-12-03T06:38:37.378Z,43.57
2022-12-03T06:43:39.050Z,45.70
2022-12-03T06:48:40.735Z,42.33
2022-12-03T06:53:42.462Z,46.20
2022-12-03T06:58:44.168Z,46.97
2022-12-03T07:03:45.864Z,43.37
2022-12-03T07:08:47.580Z,46.85
2022-12-03T07:13:49.236Z,42.83
2022-12-03T07:18:50.976Z,46.70
2022-12-03T07:23:52.640Z,40.97
2022-12-03T07:28:54.393Z,46.60
2022-12-03T07:33:56.132Z,44.90
2022-12-03T07:38:57.805Z,41.33
2022-12-03T07:43:59.485Z,40.70
2022-12-03T07:49:01.199Z,44.63
2022-12-03T07:54:02.919Z,42.17
2022-12-03T07:59:04.577Z,40.17
2022-12-03T08:04:07.242Z,45.97
2022-12-03T08:09:13.139Z,41.17
2022-12-03T08:14:32.559Z,42.93
2022-12-03T08:19:34.226Z,47.00
2022-12-03T08:24:36.578Z,41.78
2022-12-03T08:29:38.253Z,47.77
2022-12-03T08:34:44.070Z,42.25
2022-12-03T08:39:50.738Z,45.42
2022-12-03T08:44:52.921Z,41.77
2022-12-03T08:49:58.264Z,48.05
2022-12-03T08:55:10.917Z,39.35
2022-12-03T09:00:24.378Z,46.05
2022-12-03T09:05:32.535Z,50.80
2022-12-03T09:10:34.302Z,45.75
2022-12-03T09:15:35.980Z,43.53
2022-12-03T09:20:37.718Z,42.88
2022-12-03T09:25:39.448Z,44.77
2022-12-03T09:30:41.134Z,40.15
2022-12-03T09:35:42.820Z,40.13
2022-12-03T09:40:44.530Z,44.70
2022-12-03T09:45:47.805Z,43.90
2022-12-03T09:50:50.708Z,50.60
2022-12-03T09:55:52.400Z,45.38
2022-12-03T10:00:54.879Z,43.65
2022-12-03T10:05:57.722Z,48.43
2022-12-03T10:10:59.531Z,43.92
2022-12-03T10:16:01.622Z,41.83
2022-12-03T10:21:03.461Z,48.17
2022-12-03T10:26:05.290Z,53.00
2022-12-03T10:31:09.716Z,42.13
2022-12-03T10:36:23.450Z,46.47
2022-12-03T10:41:28.523Z,53.67
2022-12-03T10:46:30.393Z,56.75
2022-12-03T10:51:32.226Z,53.43
2022-12-03T10:56:34.106Z,54.72
2022-12-03T11:01:35.889Z,58.20
2022-12-03T11:06:37.645Z,57.47
2022-12-03T11:11:40.387Z,50.65
2022-12-03T11:16:41.993Z,56.42
2022-12-03T11:22:05.491Z,52.25
2022-12-03T11:27:09.811Z,56.60
2022-12-03T11:32:11.567Z,56.47
2022-12-03T11:37:21.952Z,53.00
2022-12-03T11:42:26.167Z,54.10
2022-12-03T11:47:27.979Z,53.17
2022-12-03T11:52:33.069Z,44.33
2022-12-03T11:57:38.712Z,54.83
2022-12-03T12:02:40.461Z,48.33
2022-12-03T12:07:42.525Z,51.78
2022-12-03T12:12:54.347Z,53.83
2022-12-03T12:17:56.665Z,56.42
2022-12-03T12:23:27.913Z,56.67
2022-12-03T12:28:29.574Z,56.28
2022-12-03T12:33:33.239Z,52.00
2022-12-03T12:38:34.912Z,52.50
2022-12-03T12:43:38.848Z,58.92
2022-12-03T12:48:40.563Z,56.05
2022-12-03T12:53:45.087Z,52.25
2022-12-03T12:58:46.806Z,51.80
2022-12-03T13:03:51.539Z,53.50
2022-12-03T13:08:54.062Z,58.10
2022-12-03T13:13:56.115Z,55.60
2022-12-03T13:19:01.708Z,54.38
2022-12-03T13:24:25.934Z,58.83
2022-12-03T13:29:27.968Z,60.33
2022-12-03T13:34:33.678Z,60.15
2022-12-03T13:39:38.104Z,56.20
2022-12-03T13:44:45.479Z,61.30
2022-12-03T13:50:03.549Z,63.75
2022-12-03T13:55:07.227Z,52.35
2022-12-03T14:00:09.459Z,58.88
2022-12-03T14:05:14.466Z,56.60
2022-12-03T14:10:16.906Z,52.03
2022-12-03T14:15:18.572Z,57.47
2022-12-03T14:20:21.037Z,57.58
2022-12-03T14:25:22.720Z,54.33
2022-12-03T14:30:24.423Z,54.42
2022-12-03T14:35:26.236Z,59.05
2022-12-03T14:40:27.905Z,61.90
2022-12-03T14:45:30.084Z,59.57
2022-12-03T14:50:31.830Z,61.22
2022-12-03T14:55:33.498Z,59.83
2022-12-03T15:00:35.210Z,64.05
2022-12-03T15:05:36.859Z,67.38
2022-12-03T15:10:38.548Z,52.03
2022-12-03T15:15:40.214Z,61.28
2022-12-03T15:20:41.869Z,61.58
2022-12-03T15:25:43.678Z,54.78
2022-12-03T15:30:45.449Z,59.63
2022-12-03T15:35:47.407Z,48.35
2022-12-03T15:40:49.128Z,47.95
2022-12-03T15:45:50.821Z,48.15
2022-12-03T15:50:52.511Z,39.17
2022-12-03T15:55:54.207Z,47.08
2022-12-03T16:00:55.977Z,47.33
2022-12-03T16:05:57.653Z,38.53
2022-12-03T16:10:59.324Z,38.78
2022-12-03T16:16:01.168Z,34.75
2022-12-03T16:21:02.915Z,36.17
2022-12-03T16:26:04.659Z,31.88
2022-12-03T16:31:06.390Z,38.60
2022-12-03T16:36:08.522Z,39.97
2022-12-03T16:41:10.194Z,42.67
2022-12-03T16:46:14.773Z,34.97
2022-12-03T16:51:17.062Z,37.42
2022-12-03T16:56:19.115Z,45.03
2022-12-03T17:01:20.863Z,39.37
2022-12-03T17:06:22.592Z,38.15
2022-12-03T17:11:24.254Z,37.72
2022-12-03T17:16:26.024Z,37.45
2022-12-03T17:21:30.857Z,39.00
2022-12-03T17:26:35.399Z,41.67
2022-12-03T17:31:41.610Z,37.70
2022-12-03T17:36:44.027Z,39.77
2022-12-03T17:41:45.739Z,43.05
2022-12-03T17:46:47.507Z,38.33
2022-12-03T17:51:49.263Z,41.17
2022-12-03T17:56:50.981Z,39.85
2022-12-03T18:01:52.784Z,43.38
2022-12-03T18:07:00.514Z,40.23
2022-12-03T18:12:03.953Z,40.25
2022-12-03T18:17:05.930Z,42.10
2022-12-03T18:22:07.826Z,40.97
2022-12-03T18:27:09.602Z,39.97
2022-12-03T18:32:27.204Z,40.50
2022-12-03T18:37:32.032Z,37.17
2022-12-03T18:42:33.719Z,40.38
2022-12-03T18:47:35.526Z,34.53
2022-12-03T18:52:37.525Z,36.63
2022-12-03T18:57:39.244Z,37.97
2022-12-03T19:08:04.059Z,38.92
2022-12-03T19:13:05.824Z,41.80
2022-12-03T19:18:07.584Z,36.63
2022-12-03T19:23:10.145Z,36.17
2022-12-03T19:28:11.851Z,39.85
2022-12-03T19:33:17.917Z,43.85
2022-12-03T19:38:20.080Z,39.58
2022-12-03T19:43:21.765Z,39.45
2022-12-03T19:48:23.477Z,35.40
2022-12-03T19:53:26.979Z,34.15
2022-12-03T19:58:28.675Z,37.37
2022-12-03T20:03:30.351Z,41.25
2022-12-03T20:08:32.425Z,36.85
2022-12-03T20:13:36.528Z,36.25
2022-12-03T20:18:41.780Z,33.45
2022-12-03T20:23:43.779Z,34.25
2022-12-03T20:28:47.927Z,28.95
2022-12-03T20:33:52.353Z,38.00
2022-12-03T20:38:59.196Z,30.95
2022-12-03T20:44:00.920Z,31.27
2022-12-03T20:49:03.103Z,28.83
2022-12-03T20:54:04.867Z,31.77
2022-12-03T20:59:10.371Z,29.15
2022-12-03T21:04:16.217Z,32.85
2022-12-03T21:09:17.961Z,30.85
2022-12-03T21:14:19.651Z,33.40
2022-12-03T21:19:21.956Z,31.30
2022-12-03T21:24:23.721Z,35.22
2022-12-03T21:29:25.440Z,35.10
2022-12-03T21:34:31.316Z,30.05
2022-12-03T21:39:37.554Z,36.15
2022-12-03T21:44:39.229Z,27.75
2022-12-03T21:49:41.066Z,32.78
2022-12-03T21:54:42.732Z,39.70
2022-12-03T21:59:45.372Z,48.22
2022-12-03T22:04:50.407Z,47.87
2022-12-03T22:09:52.418Z,47.53
2022-12-03T22:14:57.109Z,61.78
2022-12-03T22:19:58.803Z,52.38
2022-12-03T22:25:00.520Z,56.27
2022-12-03T22:30:03.298Z,58.63
2022-12-03T22:35:05.423Z,65.22
2022-12-03T22:40:07.434Z,71.45
2022-12-03T22:45:09.471Z,60.90
2022-12-03T22:50:11.340Z,73.32
2022-12-03T22:55:13.014Z,74.75
2022-12-03T23:00:15.446Z,68.20
2022-12-03T23:05:17.116Z,66.75
2022-12-03T23:10:18.792Z,66.97
2022-12-03T23:15:20.488Z,70.57
2022-12-03T23:20:22.694Z,64.30
2022-12-03T23:25:24.452Z,66.68
2022-12-03T23:30:26.253Z,76.65
2022-12-03T23:35:27.912Z,65.97
2022-12-03T23:40:29.614Z,72.70
2022-12-03T23:45:33.186Z,64.97
2022-12-03T23:50:34.981Z,68.93
2022-12-03T23:55:39.887Z,83.87
